sensor_id;sensor_type;location;lat;lon;timestamp;pressure;altitude;pressure_sealevel;temperature;humidity
7052;BME280;3567;52.444;13.556;2023-04-30T00:00:29;101628.00;;;7.92;86.36
7052;BME280;3567;52.444;13.556;2023-04-30T00:02:54;101633.72;;;7.88;87.05
7052;BME280;3567;52.444;13.556;2023-04-30T00:05:19;101635.47;;;7.81;86.88
7052;BME280;3567;52.444;13.556;2023-04-30T00:07:45;101629.47;;;7.73;87.13
7052;BME280;3567;52.444;13.556;2023-04-30T00:10:10;101641.03;;;7.65;87.29
7052;BME280;3567;52.444;13.556;2023-04-30T00:12:36;101636.47;;;7.59;87.54
7052;BME280;3567;52.444;13.556;2023-04-30T00:15:02;101649.88;;;7.51;87.77
7052;BME280;3567;52.444;13.556;2023-04-30T00:17:27;101647.69;;;7.40;88.83
7052;BME280;3567;52.444;13.556;2023-04-30T00:19:53;101643.84;;;7.27;89.16
7052;BME280;3567;52.444;13.556;2023-04-30T00:22:18;101644.66;;;7.13;89.73
7052;BME280;3567;52.444;13.556;2023-04-30T00:24:44;101652.47;;;7.00;89.95
7052;BME280;3567;52.444;13.556;2023-04-30T00:27:09;101652.94;;;6.89;90.47
7052;BME280;3567;52.444;13.556;2023-04-30T00:29:34;101649.22;;;6.75;91.22
7052;BME280;3567;52.444;13.556;2023-04-30T00:32:00;101654.78;;;6.65;90.98
7052;BME280;3567;52.444;13.556;2023-04-30T00:34:25;101654.22;;;6.55;91.69
7052;BME280;3567;52.444;13.556;2023-04-30T00:36:50;101659.00;;;6.45;92.54
7052;BME280;3567;52.444;13.556;2023-04-30T00:39:16;101665.38;;;6.36;92.42
7052;BME280;3567;52.444;13.556;2023-04-30T00:41:41;101667.44;;;6.25;92.74
7052;BME280;3567;52.444;13.556;2023-04-30T00:44:07;101666.50;;;6.18;93.11
7052;BME280;3567;52.444;13.556;2023-04-30T00:46:32;101661.84;;;6.12;93.84
7052;BME280;3567;52.444;13.556;2023-04-30T00:48:58;101677.53;;;6.07;94.21
7052;BME280;3567;52.444;13.556;2023-04-30T00:51:26;101679.22;;;6.00;93.78
7052;BME280;3567;52.444;13.556;2023-04-30T00:53:53;101687.09;;;5.93;94.66
7052;BME280;3567;52.444;13.556;2023-04-30T00:56:18;101680.78;;;5.86;95.44
7052;BME280;3567;52.444;13.556;2023-04-30T00:58:44;101682.84;;;5.76;94.93
7052;BME280;3567;52.444;13.556;2023-04-30T01:01:10;101684.88;;;5.66;95.87
7052;BME280;3567;52.444;13.556;2023-04-30T01:03:35;101690.38;;;5.56;96.66
7052;BME280;3567;52.444;13.556;2023-04-30T01:06:01;101695.91;;;5.46;96.13
7052;BME280;3567;52.444;13.556;2023-04-30T01:08:28;101702.22;;;5.37;96.24
7052;BME280;3567;52.444;13.556;2023-04-30T01:14:54;101698.97;;;5.19;97.23
7052;BME280;3567;52.444;13.556;2023-04-30T01:16:57;101706.13;;;5.10;97.78
7052;BME280;3567;52.444;13.556;2023-04-30T01:19:35;101702.31;;;5.05;98.13
7052;BME280;3567;52.444;13.556;2023-04-30T01:22:03;101708.13;;;5.00;98.78
7052;BME280;3567;52.444;13.556;2023-04-30T01:24:46;101702.66;;;4.93;99.61
7052;BME280;3567;52.444;13.556;2023-04-30T01:27:23;101707.63;;;4.88;98.68
7052;BME280;3567;52.444;13.556;2023-04-30T01:29:56;101708.47;;;4.89;99.15
7052;BME280;3567;52.444;13.556;2023-04-30T01:32:21;101712.28;;;4.94;99.89
7052;BME280;3567;52.444;13.556;2023-04-30T01:34:47;101714.25;;;5.00;100.00
7052;BME280;3567;52.444;13.556;2023-04-30T01:50:37;101728.84;;;5.21;99.14
7052;BME280;3567;52.444;13.556;2023-04-30T01:53:09;101727.00;;;5.21;100.00
7052;BME280;3567;52.444;13.556;2023-04-30T01:55:56;101736.47;;;5.24;99.11
7052;BME280;3567;52.444;13.556;2023-04-30T01:58:22;101740.63;;;5.26;98.92
7052;BME280;3567;52.444;13.556;2023-04-30T02:00:48;101740.59;;;5.35;99.53
7052;BME280;3567;52.444;13.556;2023-04-30T02:03:14;101740.09;;;5.39;98.03
7052;BME280;3567;52.444;13.556;2023-04-30T02:05:39;101745.56;;;5.46;98.57
7052;BME280;3567;52.444;13.556;2023-04-30T02:08:05;101749.53;;;5.50;98.49
7052;BME280;3567;52.444;13.556;2023-04-30T02:10:31;101748.88;;;5.48;97.05
7052;BME280;3567;52.444;13.556;2023-04-30T02:12:56;101748.22;;;5.46;96.83
7052;BME280;3567;52.444;13.556;2023-04-30T02:15:22;101761.19;;;5.41;97.08
7052;BME280;3567;52.444;13.556;2023-04-30T02:17:47;101762.19;;;5.32;98.13
7052;BME280;3567;52.444;13.556;2023-04-30T02:20:12;101764.88;;;5.23;97.14
7052;BME280;3567;52.444;13.556;2023-04-30T02:22:38;101759.72;;;5.14;98.43
7052;BME280;3567;52.444;13.556;2023-04-30T02:25:04;101766.56;;;5.08;97.65
7052;BME280;3567;52.444;13.556;2023-04-30T02:27:31;101771.19;;;4.98;98.44
7052;BME280;3567;52.444;13.556;2023-04-30T02:29:57;101771.88;;;4.92;98.90
7052;BME280;3567;52.444;13.556;2023-04-30T02:32:22;101780.63;;;4.84;98.92
7052;BME280;3567;52.444;13.556;2023-04-30T02:34:48;101773.19;;;4.80;98.53
7052;BME280;3567;52.444;13.556;2023-04-30T02:37:13;101778.50;;;4.80;99.57
7052;BME280;3567;52.444;13.556;2023-04-30T02:39:38;101774.84;;;4.81;100.00
7052;BME280;3567;52.444;13.556;2023-04-30T02:42:04;101775.00;;;4.79;100.00
7052;BME280;3567;52.444;13.556;2023-04-30T02:44:31;101776.16;;;4.77;100.00
7052;BME280;3567;52.444;13.556;2023-04-30T02:46:56;101785.63;;;4.71;100.00
7052;BME280;3567;52.444;13.556;2023-04-30T02:49:21;101783.13;;;4.69;100.00
7052;BME280;3567;52.444;13.556;2023-04-30T02:51:47;101777.00;;;4.69;100.00
7052;BME280;3567;52.444;13.556;2023-04-30T02:54:12;101781.81;;;4.65;100.00
7052;BME280;3567;52.444;13.556;2023-04-30T02:56:37;101778.97;;;4.59;100.00
7052;BME280;3567;52.444;13.556;2023-04-30T02:59:03;101787.56;;;4.53;100.00
7052;BME280;3567;52.444;13.556;2023-04-30T03:01:29;101783.44;;;4.50;100.00
7052;BME280;3567;52.444;13.556;2023-04-30T03:03:54;101793.88;;;4.52;100.00
7052;BME280;3567;52.444;13.556;2023-04-30T03:06:19;101794.69;;;4.52;100.00
7052;BME280;3567;52.444;13.556;2023-04-30T03:08:45;101793.56;;;4.55;100.00
7052;BME280;3567;52.444;13.556;2023-04-30T03:11:10;101794.56;;;4.62;100.00
7052;BME280;3567;52.444;13.556;2023-04-30T03:13:35;101796.91;;;4.65;100.00
7052;BME280;3567;52.444;13.556;2023-04-30T03:16:02;101797.72;;;4.65;100.00
7052;BME280;3567;52.444;13.556;2023-04-30T03:18:31;101797.72;;;4.65;100.00
7052;BME280;3567;52.444;13.556;2023-04-30T03:20:57;101799.38;;;4.66;100.00
7052;BME280;3567;52.444;13.556;2023-04-30T03:23:23;101801.03;;;4.67;100.00
7052;BME280;3567;52.444;13.556;2023-04-30T03:25:48;101802.53;;;4.70;100.00
7052;BME280;3567;52.444;13.556;2023-04-30T03:28:14;101798.72;;;4.72;100.00
7052;BME280;3567;52.444;13.556;2023-04-30T03:30:39;101805.53;;;4.75;100.00
7052;BME280;3567;52.444;13.556;2023-04-30T03:33:05;101808.69;;;4.79;100.00
7052;BME280;3567;52.444;13.556;2023-04-30T03:35:31;101808.69;;;4.79;100.00
7052;BME280;3567;52.444;13.556;2023-04-30T03:37:58;101810.38;;;4.80;100.00
7052;BME280;3567;52.444;13.556;2023-04-30T03:40:23;101810.38;;;4.80;100.00
7052;BME280;3567;52.444;13.556;2023-04-30T03:42:48;101812.84;;;4.81;100.00
7052;BME280;3567;52.444;13.556;2023-04-30T03:45:14;101819.81;;;4.82;100.00
7052;BME280;3567;52.444;13.556;2023-04-30T03:47:42;101812.00;;;4.81;100.00
7052;BME280;3567;52.444;13.556;2023-04-30T03:50:08;101815.31;;;4.83;100.00
7052;BME280;3567;52.444;13.556;2023-04-30T03:52:34;101819.16;;;4.88;100.00
7052;BME280;3567;52.444;13.556;2023-04-30T03:55:01;101823.31;;;4.91;100.00
7052;BME280;3567;52.444;13.556;2023-04-30T03:57:26;101826.94;;;4.90;100.00
7052;BME280;3567;52.444;13.556;2023-04-30T03:59:52;101826.47;;;4.86;100.00
7052;BME280;3567;52.444;13.556;2023-04-30T04:02:17;101833.59;;;4.86;100.00
7052;BME280;3567;52.444;13.556;2023-04-30T04:04:42;101836.25;;;4.86;100.00
7052;BME280;3567;52.444;13.556;2023-04-30T04:07:08;101838.22;;;4.84;100.00
7052;BME280;3567;52.444;13.556;2023-04-30T04:09:35;101841.69;;;4.84;100.00
7052;BME280;3567;52.444;13.556;2023-04-30T04:12:01;101850.53;;;4.85;100.00
7052;BME280;3567;52.444;13.556;2023-04-30T04:14:27;101844.03;;;4.87;100.00
7052;BME280;3567;52.444;13.556;2023-04-30T04:16:52;101843.72;;;4.90;100.00
7052;BME280;3567;52.444;13.556;2023-04-30T04:19:17;101846.22;;;4.92;100.00
7052;BME280;3567;52.444;13.556;2023-04-30T04:21:43;101849.84;;;4.99;100.00
7052;BME280;3567;52.444;13.556;2023-04-30T04:24:08;101855.69;;;5.03;100.00
7052;BME280;3567;52.444;13.556;2023-04-30T04:26:37;101860.31;;;5.09;100.00
7052;BME280;3567;52.444;13.556;2023-04-30T04:29:03;101858.84;;;5.14;100.00
7052;BME280;3567;52.444;13.556;2023-04-30T04:31:29;101860.81;;;5.20;100.00
7052;BME280;3567;52.444;13.556;2023-04-30T04:33:55;101865.47;;;5.26;100.00
7052;BME280;3567;52.444;13.556;2023-04-30T04:36:26;101865.81;;;5.32;100.00
7052;BME280;3567;52.444;13.556;2023-04-30T04:38:55;101871.44;;;5.37;100.00
7052;BME280;3567;52.444;13.556;2023-04-30T04:41:27;101878.09;;;5.41;100.00
7052;BME280;3567;52.444;13.556;2023-04-30T04:43:53;101871.28;;;5.46;100.00
7052;BME280;3567;52.444;13.556;2023-04-30T04:46:18;101874.28;;;5.51;100.00
7052;BME280;3567;52.444;13.556;2023-04-30T04:48:45;101879.09;;;5.56;100.00
7052;BME280;3567;52.444;13.556;2023-04-30T04:51:11;101887.41;;;5.61;99.84
7052;BME280;3567;52.444;13.556;2023-04-30T04:53:36;101880.41;;;5.68;99.88
7052;BME280;3567;52.444;13.556;2023-04-30T04:56:01;101882.88;;;5.78;100.00
7052;BME280;3567;52.444;13.556;2023-04-30T04:58:27;101894.00;;;5.90;99.23
7052;BME280;3567;52.444;13.556;2023-04-30T05:00:52;101896.69;;;5.98;98.84
7052;BME280;3567;52.444;13.556;2023-04-30T05:03:19;101901.13;;;6.06;98.75
7052;BME280;3567;52.444;13.556;2023-04-30T05:05:45;101916.25;;;6.13;97.90
7052;BME280;3567;52.444;13.556;2023-04-30T05:08:10;101910.25;;;6.19;98.01
7052;BME280;3567;52.444;13.556;2023-04-30T05:10:36;101907.91;;;6.24;96.89
7052;BME280;3567;52.444;13.556;2023-04-30T05:13:01;101920.72;;;6.29;96.73
7052;BME280;3567;52.444;13.556;2023-04-30T05:15:27;101925.34;;;6.35;96.09
7052;BME280;3567;52.444;13.556;2023-04-30T05:17:52;101924.81;;;6.40;96.14
7052;BME280;3567;52.444;13.556;2023-04-30T05:20:17;101931.63;;;6.42;95.78
7052;BME280;3567;52.444;13.556;2023-04-30T05:22:43;101929.47;;;6.46;95.19
7052;BME280;3567;52.444;13.556;2023-04-30T05:25:08;101936.09;;;6.50;95.18
7052;BME280;3567;52.444;13.556;2023-04-30T05:27:33;101939.38;;;6.60;95.03
7052;BME280;3567;52.444;13.556;2023-04-30T05:30:00;101940.81;;;6.71;94.72
7052;BME280;3567;52.444;13.556;2023-04-30T05:32:25;101935.81;;;6.76;93.74
7052;BME280;3567;52.444;13.556;2023-04-30T05:34:52;101948.91;;;6.86;93.46
7052;BME280;3567;52.444;13.556;2023-04-30T05:37:17;101948.38;;;6.90;92.87
7052;BME280;3567;52.444;13.556;2023-04-30T05:39:44;101945.84;;;6.97;92.67
7052;BME280;3567;52.444;13.556;2023-04-30T05:42:10;101958.44;;;7.11;91.94
7052;BME280;3567;52.444;13.556;2023-04-30T05:44:35;101952.53;;;7.47;91.53
7052;BME280;3567;52.444;13.556;2023-04-30T05:47:00;101961.53;;;7.69;90.36
7052;BME280;3567;52.444;13.556;2023-04-30T05:49:26;101954.66;;;7.74;88.83
7052;BME280;3567;52.444;13.556;2023-04-30T05:51:51;101956.00;;;7.70;88.96
7052;BME280;3567;52.444;13.556;2023-04-30T05:54:16;101962.25;;;7.63;89.31
7052;BME280;3567;52.444;13.556;2023-04-30T05:56:42;101963.13;;;7.55;89.81
7052;BME280;3567;52.444;13.556;2023-04-30T05:59:07;101969.69;;;7.44;88.70
7052;BME280;3567;52.444;13.556;2023-04-30T06:01:33;101974.88;;;7.46;88.95
7052;BME280;3567;52.444;13.556;2023-04-30T06:03:58;101972.22;;;7.46;88.86
7052;BME280;3567;52.444;13.556;2023-04-30T06:06:25;101971.50;;;7.52;88.96
7052;BME280;3567;52.444;13.556;2023-04-30T06:08:52;101980.44;;;7.59;87.23
7052;BME280;3567;52.444;13.556;2023-04-30T06:11:17;101976.47;;;7.55;86.52
7052;BME280;3567;52.444;13.556;2023-04-30T06:13:43;101977.81;;;7.51;86.91
7052;BME280;3567;52.444;13.556;2023-04-30T06:16:08;101979.19;;;7.47;86.42
7052;BME280;3567;52.444;13.556;2023-04-30T06:18:34;101991.84;;;7.45;86.79
7052;BME280;3567;52.444;13.556;2023-04-30T06:20:59;101987.00;;;7.48;87.55
7052;BME280;3567;52.444;13.556;2023-04-30T06:23:24;101990.31;;;7.50;86.07
7052;BME280;3567;52.444;13.556;2023-04-30T06:25:50;101988.03;;;7.47;85.37
7052;BME280;3567;52.444;13.556;2023-04-30T06:28:15;101990.19;;;7.44;86.58
7052;BME280;3567;52.444;13.556;2023-04-30T06:30:40;101994.28;;;7.54;86.66
7052;BME280;3567;52.444;13.556;2023-04-30T06:33:06;101989.75;;;8.01;85.32
7052;BME280;3567;52.444;13.556;2023-04-30T06:35:31;101985.03;;;8.26;83.62
7052;BME280;3567;52.444;13.556;2023-04-30T06:37:57;101988.25;;;8.21;83.05
7052;BME280;3567;52.444;13.556;2023-04-30T06:40:22;101987.66;;;8.11;82.51
7052;BME280;3567;52.444;13.556;2023-04-30T06:42:48;101989.66;;;8.09;82.97
7052;BME280;3567;52.444;13.556;2023-04-30T06:45:13;101988.84;;;8.08;83.40
7052;BME280;3567;52.444;13.556;2023-04-30T06:47:41;101986.00;;;8.10;83.45
7052;BME280;3567;52.444;13.556;2023-04-30T06:50:07;101988.25;;;8.21;82.76
7052;BME280;3567;52.444;13.556;2023-04-30T06:52:33;101990.81;;;8.29;81.93
7052;BME280;3567;52.444;13.556;2023-04-30T06:54:58;101985.03;;;8.26;80.95
7052;BME280;3567;52.444;13.556;2023-04-30T06:57:24;101995.41;;;8.21;81.30
7052;BME280;3567;52.444;13.556;2023-04-30T06:59:50;101988.59;;;8.18;80.67
7052;BME280;3567;52.444;13.556;2023-04-30T07:02:15;101986.94;;;8.17;80.68
7052;BME280;3567;52.444;13.556;2023-04-30T07:04:41;101976.53;;;8.22;80.82
7052;BME280;3567;52.444;13.556;2023-04-30T07:07:06;101983.53;;;8.23;81.19
7052;BME280;3567;52.444;13.556;2023-04-30T07:09:31;101986.69;;;8.27;80.33
7052;BME280;3567;52.444;13.556;2023-04-30T07:11:57;101984.84;;;8.27;80.03
7052;BME280;3567;52.444;13.556;2023-04-30T07:14:23;101992.94;;;8.34;80.59
7052;BME280;3567;52.444;13.556;2023-04-30T07:16:51;101989.13;;;8.36;78.92
7052;BME280;3567;52.444;13.556;2023-04-30T07:19:17;101993.53;;;8.44;79.09
7052;BME280;3567;52.444;13.556;2023-04-30T07:21:43;101982.09;;;8.50;79.90
7052;BME280;3567;52.444;13.556;2023-04-30T07:24:08;101988.09;;;8.52;79.34
7052;BME280;3567;52.444;13.556;2023-04-30T07:26:34;101991.22;;;8.56;79.92
7052;BME280;3567;52.444;13.556;2023-04-30T07:29:00;101986.81;;;8.63;78.77
7052;BME280;3567;52.444;13.556;2023-04-30T07:31:25;101995.34;;;8.73;78.22
7052;BME280;3567;52.444;13.556;2023-04-30T07:33:51;101999.78;;;8.81;78.42
7052;BME280;3567;52.444;13.556;2023-04-30T07:36:16;101989.72;;;8.98;79.25
7052;BME280;3567;52.444;13.556;2023-04-30T07:38:42;101997.25;;;9.09;78.55
7052;BME280;3567;52.444;13.556;2023-04-30T07:41:07;101989.19;;;9.24;77.20
7052;BME280;3567;52.444;13.556;2023-04-30T07:43:34;101993.06;;;9.42;77.92
7052;BME280;3567;52.444;13.556;2023-04-30T07:45:59;101999.19;;;9.58;76.87
7052;BME280;3567;52.444;13.556;2023-04-30T07:48:25;101990.50;;;9.70;76.45
7052;BME280;3567;52.444;13.556;2023-04-30T07:50:50;101983.53;;;9.76;72.91
7052;BME280;3567;52.444;13.556;2023-04-30T07:53:16;101988.50;;;9.79;74.27
7052;BME280;3567;52.444;13.556;2023-04-30T07:55:41;101999.94;;;9.94;73.75
7052;BME280;3567;52.444;13.556;2023-04-30T07:58:06;101994.47;;;10.03;74.31
7052;BME280;3567;52.444;13.556;2023-04-30T08:00:32;101996.19;;;10.17;74.83
7052;BME280;3567;52.444;13.556;2023-04-30T08:02:58;101991.22;;;10.35;72.75
7052;BME280;3567;52.444;13.556;2023-04-30T08:05:25;101999.78;;;10.52;72.79
7052;BME280;3567;52.444;13.556;2023-04-30T08:07:50;101997.34;;;10.57;71.15
7052;BME280;3567;52.444;13.556;2023-04-30T08:10:15;101992.28;;;10.41;71.30
7052;BME280;3567;52.444;13.556;2023-04-30T08:12:41;101994.31;;;10.11;68.27
7052;BME280;3567;52.444;13.556;2023-04-30T08:15:07;101996.13;;;10.04;70.02
7052;BME280;3567;52.444;13.556;2023-04-30T08:17:33;101996.59;;;10.14;68.49
7052;BME280;3567;52.444;13.556;2023-04-30T08:19:59;101998.56;;;10.27;65.16
7052;BME280;3567;52.444;13.556;2023-04-30T08:22:25;101988.38;;;10.43;63.74
7052;BME280;3567;52.444;13.556;2023-04-30T08:24:51;101997.78;;;10.61;64.37
7052;BME280;3567;52.444;13.556;2023-04-30T08:27:16;101995.22;;;10.87;63.08
7052;BME280;3567;52.444;13.556;2023-04-30T08:29:42;101982.69;;;11.01;57.53
7052;BME280;3567;52.444;13.556;2023-04-30T08:32:07;101985.38;;;11.08;58.78
7052;BME280;3567;52.444;13.556;2023-04-30T08:34:33;101985.66;;;11.26;60.09
7052;BME280;3567;52.444;13.556;2023-04-30T08:36:59;101980.28;;;11.26;58.69
7052;BME280;3567;52.444;13.556;2023-04-30T08:39:24;101988.94;;;11.21;58.11
7052;BME280;3567;52.444;13.556;2023-04-30T08:41:55;101995.78;;;11.37;59.37
7052;BME280;3567;52.444;13.556;2023-04-30T08:44:21;101990.25;;;11.65;59.57
7052;BME280;3567;52.444;13.556;2023-04-30T08:46:53;101994.25;;;11.96;58.05
7052;BME280;3567;52.444;13.556;2023-04-30T08:49:23;101981.63;;;12.23;57.40
7052;BME280;3567;52.444;13.556;2023-04-30T08:51:49;101989.41;;;12.57;56.44
7052;BME280;3567;52.444;13.556;2023-04-30T08:54:15;101985.97;;;12.89;55.86
7052;BME280;3567;52.444;13.556;2023-04-30T08:56:41;101970.69;;;12.89;51.99
7052;BME280;3567;52.444;13.556;2023-04-30T08:59:07;101960.00;;;12.69;50.81
7052;BME280;3567;52.444;13.556;2023-04-30T09:01:33;101966.22;;;12.56;51.85
7052;BME280;3567;52.444;13.556;2023-04-30T09:03:59;101953.88;;;12.36;49.98
7052;BME280;3567;52.444;13.556;2023-04-30T09:06:27;101960.53;;;12.13;50.22
7052;BME280;3567;52.444;13.556;2023-04-30T09:08:52;101970.47;;;12.13;52.25
7052;BME280;3567;52.444;13.556;2023-04-30T09:11:27;101978.88;;;12.49;52.58
7052;BME280;3567;52.444;13.556;2023-04-30T09:14:00;101967.06;;;12.64;51.38
7052;BME280;3567;52.444;13.556;2023-04-30T09:16:46;101960.38;;;12.73;47.63
7052;BME280;3567;52.444;13.556;2023-04-30T09:19:25;101961.09;;;12.48;47.93
7052;BME280;3567;52.444;13.556;2023-04-30T09:21:51;101970.94;;;12.74;49.33
7052;BME280;3567;52.444;13.556;2023-04-30T09:24:17;101969.00;;;12.88;50.57
7052;BME280;3567;52.444;13.556;2023-04-30T09:26:43;101969.44;;;12.85;48.86
7052;BME280;3567;52.444;13.556;2023-04-30T09:29:11;101977.75;;;12.77;51.06
7052;BME280;3567;52.444;13.556;2023-04-30T09:31:37;101988.28;;;12.85;51.52
7052;BME280;3567;52.444;13.556;2023-04-30T09:34:03;101965.50;;;12.88;49.44
7052;BME280;3567;52.444;13.556;2023-04-30T09:36:29;101965.63;;;13.06;49.56
7052;BME280;3567;52.444;13.556;2023-04-30T09:38:56;101963.09;;;13.18;48.05
7052;BME280;3567;52.444;13.556;2023-04-30T09:41:26;101956.88;;;13.17;47.37
7052;BME280;3567;52.444;13.556;2023-04-30T09:43:55;101957.47;;;13.19;47.69
7052;BME280;3567;52.444;13.556;2023-04-30T09:46:29;101950.31;;;13.06;45.88
7052;BME280;3567;52.444;13.556;2023-04-30T09:48:59;101956.13;;;13.03;46.76
7052;BME280;3567;52.444;13.556;2023-04-30T09:51:25;101954.06;;;13.05;46.67
7052;BME280;3567;52.444;13.556;2023-04-30T09:53:51;101941.78;;;13.09;44.47
7052;BME280;3567;52.444;13.556;2023-04-30T09:56:25;101939.69;;;12.80;45.19
7052;BME280;3567;52.444;13.556;2023-04-30T09:58:53;101938.47;;;12.76;46.11
7052;BME280;3567;52.444;13.556;2023-04-30T10:01:24;101924.81;;;12.71;42.97
7052;BME280;3567;52.444;13.556;2023-04-30T10:03:53;101916.22;;;12.55;44.16
7052;BME280;3567;52.444;13.556;2023-04-30T10:06:20;101931.00;;;12.78;44.91
7052;BME280;3567;52.444;13.556;2023-04-30T10:08:47;101934.28;;;12.87;44.13
7052;BME280;3567;52.444;13.556;2023-04-30T10:11:20;101927.47;;;12.77;44.26
7052;BME280;3567;52.444;13.556;2023-04-30T10:13:53;101932.66;;;12.79;45.20
7052;BME280;3567;52.444;13.556;2023-04-30T10:18:58;101925.56;;;13.29;44.77
7052;BME280;3567;52.444;13.556;2023-04-30T10:21:27;101936.31;;;13.61;44.23
7052;BME280;3567;52.444;13.556;2023-04-30T10:23:54;101927.00;;;13.63;44.04
7052;BME280;3567;52.444;13.556;2023-04-30T10:26:19;101912.66;;;13.70;42.15
7052;BME280;3567;52.444;13.556;2023-04-30T10:28:47;101915.44;;;13.56;42.12
7052;BME280;3567;52.444;13.556;2023-04-30T10:31:15;101910.94;;;13.50;41.92
7052;BME280;3567;52.444;13.556;2023-04-30T10:33:57;101899.09;;;13.20;40.45
7052;BME280;3567;52.444;13.556;2023-04-30T10:36:34;101914.66;;;13.18;42.06
7052;BME280;3567;52.444;13.556;2023-04-30T10:39:01;101902.69;;;13.45;40.97
7052;BME280;3567;52.444;13.556;2023-04-30T10:41:27;101890.47;;;13.68;40.02
7052;BME280;3567;52.444;13.556;2023-04-30T10:43:57;101896.09;;;13.91;40.85
7052;BME280;3567;52.444;13.556;2023-04-30T10:46:24;101892.50;;;14.15;40.23
7052;BME280;3567;52.444;13.556;2023-04-30T10:48:51;101879.03;;;14.15;39.66
7052;BME280;3567;52.444;13.556;2023-04-30T10:51:18;101886.31;;;14.33;39.99
7052;BME280;3567;52.444;13.556;2023-04-30T10:53:48;101887.41;;;14.62;39.97
7052;BME280;3567;52.444;13.556;2023-04-30T10:56:28;101879.88;;;14.83;38.10
7052;BME280;3567;52.444;13.556;2023-04-30T10:58:58;101876.00;;;14.79;37.07
7052;BME280;3567;52.444;13.556;2023-04-30T11:01:25;101879.91;;;14.64;38.61
7052;BME280;3567;52.444;13.556;2023-04-30T11:04:10;101865.44;;;14.77;36.52
7052;BME280;3567;52.444;13.556;2023-04-30T11:06:49;101875.06;;;15.27;37.96
7052;BME280;3567;52.444;13.556;2023-04-30T11:09:19;101861.69;;;15.32;36.67
7052;BME280;3567;52.444;13.556;2023-04-30T11:12:00;101875.00;;;15.45;36.27
7052;BME280;3567;52.444;13.556;2023-04-30T11:14:30;101865.03;;;15.57;36.67
7052;BME280;3567;52.444;13.556;2023-04-30T11:16:58;101860.34;;;15.88;35.94
7052;BME280;3567;52.444;13.556;2023-04-30T11:19:26;101857.63;;;16.11;36.59
7052;BME280;3567;52.444;13.556;2023-04-30T11:24:53;101848.28;;;16.71;34.50
7052;BME280;3567;52.444;13.556;2023-04-30T11:27:29;101846.38;;;17.00;34.49
7052;BME280;3567;52.444;13.556;2023-04-30T11:29:56;101842.78;;;17.11;33.29
7052;BME280;3567;52.444;13.556;2023-04-30T11:32:23;101823.91;;;17.33;32.97
7052;BME280;3567;52.444;13.556;2023-04-30T11:34:50;101820.69;;;17.53;32.75
7052;BME280;3567;52.444;13.556;2023-04-30T11:37:20;101828.28;;;17.90;32.31
7052;BME280;3567;52.444;13.556;2023-04-30T11:39:47;101827.91;;;18.03;32.95
7052;BME280;3567;52.444;13.556;2023-04-30T11:42:17;101830.69;;;18.30;32.21
7052;BME280;3567;52.444;13.556;2023-04-30T11:44:43;101825.66;;;18.66;32.17
7052;BME280;3567;52.444;13.556;2023-04-30T11:47:09;101825.75;;;19.03;31.26
7052;BME280;3567;52.444;13.556;2023-04-30T11:49:36;101822.00;;;19.09;31.22
7052;BME280;3567;52.444;13.556;2023-04-30T11:52:01;101820.88;;;19.05;31.30
7052;BME280;3567;52.444;13.556;2023-04-30T11:54:30;101824.63;;;19.31;32.15
7052;BME280;3567;52.444;13.556;2023-04-30T11:56:56;101819.59;;;19.50;31.68
7052;BME280;3567;52.444;13.556;2023-04-30T11:59:28;101806.19;;;19.80;31.04
7052;BME280;3567;52.444;13.556;2023-04-30T12:01:53;101807.34;;;19.89;30.32
7052;BME280;3567;52.444;13.556;2023-04-30T12:04:19;101800.47;;;19.77;30.15
7052;BME280;3567;52.444;13.556;2023-04-30T12:06:44;101812.97;;;19.73;32.12
7052;BME280;3567;52.444;13.556;2023-04-30T12:09:09;101813.81;;;19.78;31.67
7052;BME280;3567;52.444;13.556;2023-04-30T12:11:37;101809.91;;;19.64;30.47
7052;BME280;3567;52.444;13.556;2023-04-30T12:14:05;101809.56;;;19.55;30.06
7052;BME280;3567;52.444;13.556;2023-04-30T12:16:42;101802.84;;;19.63;30.20
7052;BME280;3567;52.444;13.556;2023-04-30T12:19:14;101798.03;;;19.80;28.99
7052;BME280;3567;52.444;13.556;2023-04-30T12:21:41;101805.59;;;19.68;29.78
7052;BME280;3567;52.444;13.556;2023-04-30T12:24:16;101809.94;;;19.32;29.90
7052;BME280;3567;52.444;13.556;2023-04-30T12:26:42;101808.91;;;19.38;30.38
7052;BME280;3567;52.444;13.556;2023-04-30T12:29:14;101801.41;;;19.55;30.10
7052;BME280;3567;52.444;13.556;2023-04-30T12:31:40;101792.16;;;19.51;29.43
7052;BME280;3567;52.444;13.556;2023-04-30T12:34:07;101796.38;;;19.74;30.00
7052;BME280;3567;52.444;13.556;2023-04-30T12:36:33;101785.06;;;19.93;30.25
7052;BME280;3567;52.444;13.556;2023-04-30T12:39:20;101791.88;;;20.00;28.84
7052;BME280;3567;52.444;13.556;2023-04-30T12:41:48;101783.19;;;19.98;28.81
7052;BME280;3567;52.444;13.556;2023-04-30T12:44:17;101779.78;;;19.76;29.01
7052;BME280;3567;52.444;13.556;2023-04-30T12:46:42;101787.16;;;19.80;30.17
7052;BME280;3567;52.444;13.556;2023-04-30T12:49:10;101776.22;;;19.70;29.78
7052;BME280;3567;52.444;13.556;2023-04-30T12:51:36;101778.22;;;19.85;29.56
7052;BME280;3567;52.444;13.556;2023-04-30T12:54:05;101771.19;;;19.94;29.65
7052;BME280;3567;52.444;13.556;2023-04-30T12:56:30;101772.97;;;19.68;29.74
7052;BME280;3567;52.444;13.556;2023-04-30T12:58:56;101774.88;;;19.68;29.59
7052;BME280;3567;52.444;13.556;2023-04-30T13:01:22;101768.69;;;19.82;29.83
7052;BME280;3567;52.444;13.556;2023-04-30T13:03:49;101765.50;;;20.01;30.02
7052;BME280;3567;52.444;13.556;2023-04-30T13:06:14;101776.44;;;20.21;30.59
7052;BME280;3567;52.444;13.556;2023-04-30T13:08:40;101777.59;;;20.35;30.37
7052;BME280;3567;52.444;13.556;2023-04-30T13:11:05;101771.50;;;20.03;29.62
7052;BME280;3567;52.444;13.556;2023-04-30T13:13:31;101772.47;;;19.81;29.97
7052;BME280;3567;52.444;13.556;2023-04-30T13:15:56;101768.19;;;19.91;29.96
7052;BME280;3567;52.444;13.556;2023-04-30T13:18:22;101759.41;;;19.73;28.38
7052;BME280;3567;52.444;13.556;2023-04-30T13:20:47;101755.41;;;19.44;28.77
7052;BME280;3567;52.444;13.556;2023-04-30T13:23:12;101770.63;;;19.40;31.03
7052;BME280;3567;52.444;13.556;2023-04-30T13:25:39;101768.03;;;19.60;30.46